createdAt,value
2022-10-21T00:00:50.226Z,7.0
2022-10-21T00:02:49.671Z,8.5
2022-10-21T00:04:49.671Z,7.3
2022-10-21T00:06:50.487Z,7.5
2022-10-21T00:08:49.929Z,7.6
2022-10-21T00:10:49.839Z,7.6
2022-10-21T00:12:50.167Z,7.8
2022-10-21T00:14:51.569Z,10.0
2022-10-21T00:16:50.064Z,7.8
2022-10-21T00:18:50.526Z,8.6
2022-10-21T00:20:49.930Z,8.6
2022-10-21T00:22:50.446Z,7.5
2022-10-21T00:24:50.119Z,7.5
2022-10-21T00:26:50.431Z,7.9
2022-10-21T00:28:50.406Z,9.5
2022-10-21T00:30:49.891Z,9.5
2022-10-21T00:32:50.414Z,9.0
2022-10-21T00:34:50.507Z,7.6
2022-10-21T00:36:50.555Z,7.6
2022-10-21T00:38:49.573Z,7.6
2022-10-21T00:40:50.124Z,8.8
2022-10-21T00:42:49.697Z,7.7
2022-10-21T00:44:49.869Z,8.0
2022-10-21T00:46:49.807Z,7.5
2022-10-21T00:48:50.311Z,7.5
2022-10-21T00:50:50.535Z,7.8
2022-10-21T00:52:49.910Z,7.8
2022-10-21T00:54:50.374Z,7.7
2022-10-21T00:58:49.578Z,7.7
2022-10-21T01:00:50.014Z,7.6
2022-10-21T01:02:49.851Z,7.7
2022-10-21T01:04:50.036Z,8.0
2022-10-21T01:06:49.901Z,8.0
2022-10-21T01:08:50.445Z,7.8
2022-10-21T01:10:50.289Z,9.3
2022-10-21T01:12:49.748Z,8.5
2022-10-21T01:14:50.202Z,7.7
2022-10-21T01:16:50.309Z,7.7
2022-10-21T01:18:49.770Z,7.8
2022-10-21T01:20:50.215Z,7.8
2022-10-21T01:22:49.719Z,8.5
2022-10-21T01:24:50.124Z,8.5
2022-10-21T01:26:49.950Z,8.8
2022-10-21T01:28:50.373Z,8.6
2022-10-21T01:30:49.845Z,8.5
2022-10-21T01:32:50.281Z,8.1
2022-10-21T01:34:50.206Z,8.2
2022-10-21T01:36:50.112Z,8.2
2022-10-21T01:38:50.520Z,8.8
2022-10-21T01:40:49.912Z,9.3
2022-10-21T01:42:50.363Z,8.6
2022-10-21T01:44:49.786Z,8.6
2022-10-21T01:46:49.740Z,8.6
2022-10-21T01:48:50.148Z,9.2
2022-10-21T01:50:49.737Z,8.5
2022-10-21T01:52:50.189Z,8.5
2022-10-21T01:54:49.644Z,8.3
2022-10-21T01:56:50.392Z,8.3
2022-10-21T01:58:49.925Z,8.4
2022-10-21T02:00:50.363Z,8.2
2022-10-21T02:02:50.175Z,10.4
2022-10-21T02:04:50.177Z,10.0
2022-10-21T02:06:49.982Z,10.0
2022-10-21T02:08:49.862Z,9.9
2022-10-21T02:10:49.774Z,8.8
2022-10-21T02:12:50.110Z,8.8
2022-10-21T02:14:50.475Z,8.9
2022-10-21T02:16:50.251Z,11.4
2022-10-21T02:18:49.692Z,9.2
2022-10-21T02:20:49.997Z,8.6
2022-10-21T02:22:49.573Z,9.3
2022-10-21T02:24:50.276Z,9.3
2022-10-21T02:26:50.089Z,8.7
2022-10-21T02:28:49.569Z,9.6
2022-10-21T02:30:50.151Z,9.9
2022-10-21T02:32:49.546Z,9.0
2022-10-21T02:34:50.535Z,9.0
2022-10-21T02:36:50.299Z,9.5
2022-10-21T02:38:49.924Z,9.3
2022-10-21T02:40:50.430Z,9.7
2022-10-21T02:42:49.943Z,14.6
2022-10-21T02:44:50.346Z,14.6
2022-10-21T02:46:50.272Z,12.4
2022-10-21T02:48:49.639Z,9.7
2022-10-21T02:50:50.186Z,11.1
2022-10-21T02:52:50.561Z,10.5
2022-10-21T02:54:50.040Z,10.5
2022-10-21T02:56:49.861Z,10.6
2022-10-21T02:58:50.336Z,10.6
2022-10-21T03:00:49.862Z,10.2
2022-10-21T03:02:49.756Z,11.6
2022-10-21T03:04:49.800Z,11.6
2022-10-21T03:06:49.643Z,11.1
2022-10-21T03:08:50.015Z,11.1
2022-10-21T03:10:52.131Z,12.4
2022-10-21T03:12:50.104Z,12.4
2022-10-21T03:14:49.587Z,10.2
2022-10-21T03:16:50.384Z,12.2
2022-10-21T03:18:49.869Z,11.2
2022-10-21T03:20:50.140Z,11.2
2022-10-21T03:22:49.674Z,11.2
2022-10-21T03:24:50.020Z,12.2
2022-10-21T03:26:49.718Z,10.6
2022-10-21T03:28:50.064Z,10.6
2022-10-21T03:30:50.407Z,10.6
2022-10-21T03:32:49.847Z,10.5
2022-10-21T03:34:49.747Z,10.7
2022-10-21T03:36:50.392Z,10.1
2022-10-21T03:38:49.774Z,13.0
2022-10-21T03:40:50.258Z,13.0
2022-10-21T03:42:49.695Z,11.4
2022-10-21T03:44:50.180Z,10.9
2022-10-21T03:46:49.925Z,11.0
2022-10-21T03:48:50.424Z,10.8
2022-10-21T03:50:49.825Z,10.8
2022-10-21T03:52:50.183Z,11.4
2022-10-21T03:54:49.581Z,10.5
2022-10-21T03:56:50.465Z,10.8
2022-10-21T03:58:49.846Z,10.6
2022-10-21T04:00:49.907Z,10.6
2022-10-21T04:02:50.358Z,10.9
2022-10-21T04:04:50.263Z,11.5
2022-10-21T04:06:49.841Z,10.9
2022-10-21T04:08:50.571Z,13.1
2022-10-21T04:10:50.374Z,13.1
2022-10-21T04:12:50.159Z,10.9
2022-10-21T04:14:49.649Z,11.4
2022-10-21T04:16:57.591Z,17.0
2022-10-21T04:18:50.560Z,11.4
2022-10-21T04:20:50.146Z,11.4
2022-10-21T04:22:49.547Z,13.2
2022-10-21T04:24:50.044Z,11.1
2022-10-21T04:26:49.661Z,12.2
2022-10-21T04:28:50.078Z,11.5
2022-10-21T04:30:50.350Z,11.5
2022-10-21T04:32:49.795Z,11.5
2022-10-21T04:34:49.856Z,12.7
2022-10-21T04:36:49.631Z,11.3
2022-10-21T04:38:50.092Z,13.7
2022-10-21T04:40:49.572Z,13.7
2022-10-21T04:42:49.985Z,11.4
2022-10-21T04:44:50.407Z,11.4
2022-10-21T04:46:50.125Z,13.9
2022-10-21T04:48:49.671Z,13.9
2022-10-21T04:50:50.044Z,13.5
2022-10-21T04:52:49.539Z,11.5
2022-10-21T04:54:49.930Z,11.8
2022-10-21T04:56:49.781Z,15.9
2022-10-21T04:58:50.195Z,15.9
2022-10-21T05:00:49.741Z,12.8
2022-10-21T05:02:49.545Z,11.7
2022-10-21T05:04:49.603Z,12.0
2022-10-21T05:06:50.220Z,12.0
2022-10-21T05:08:49.673Z,11.1
2022-10-21T05:10:50.532Z,11.3
2022-10-21T05:12:49.929Z,11.4
2022-10-21T05:14:50.334Z,11.9
2022-10-21T05:16:50.184Z,12.4
2022-10-21T05:18:50.570Z,12.4
2022-10-21T05:20:49.947Z,11.4
2022-10-21T05:22:50.373Z,12.0
2022-10-21T05:24:49.810Z,11.7
2022-10-21T05:26:49.752Z,11.7
2022-10-21T05:28:50.082Z,13.5
2022-10-21T05:30:49.605Z,12.8
2022-10-21T05:32:49.959Z,13.6
2022-10-21T05:34:49.864Z,12.6
2022-10-21T05:36:49.644Z,12.6
2022-10-21T05:38:50.111Z,13.8
2022-10-21T05:40:49.588Z,15.3
2022-10-21T05:42:49.935Z,13.4
2022-10-21T05:44:50.377Z,14.4
2022-10-21T05:46:50.127Z,14.4
2022-10-21T05:48:50.520Z,14.1
2022-10-21T05:50:49.924Z,13.6
2022-10-21T05:52:50.320Z,16.2
2022-10-21T05:54:49.720Z,16.2
2022-10-21T05:56:49.547Z,14.9
2022-10-21T05:58:49.923Z,13.3
2022-10-21T06:00:50.521Z,12.4
2022-10-21T06:02:50.272Z,13.0
2022-10-21T06:04:50.180Z,13.0
2022-10-21T06:06:49.858Z,12.8
2022-10-21T06:08:49.758Z,14.4
2022-10-21T06:10:50.534Z,18.3
2022-10-21T06:12:49.964Z,18.0
2022-10-21T06:14:50.304Z,18.0
2022-10-21T06:16:50.087Z,22.0
2022-10-21T06:18:50.479Z,16.2
2022-10-21T06:20:50.015Z,16.2
2022-10-21T06:22:49.549Z,16.9
2022-10-21T06:24:50.062Z,16.9
2022-10-21T06:26:49.829Z,15.5
2022-10-21T06:28:50.417Z,14.5
2022-10-21T06:30:49.981Z,14.5
2022-10-21T06:32:50.500Z,18.0
2022-10-21T06:34:50.469Z,18.0
2022-10-21T06:36:50.219Z,15.6
2022-10-21T06:38:49.698Z,15.2
2022-10-21T06:40:50.270Z,10.9
2022-10-21T06:42:49.713Z,16.7
2022-10-21T06:44:50.246Z,16.7
2022-10-21T06:46:50.071Z,13.0
2022-10-21T06:48:49.533Z,11.2
2022-10-21T06:50:49.866Z,11.6
2022-10-21T06:52:50.387Z,11.6
2022-10-21T06:54:49.807Z,12.2
2022-10-21T06:56:49.747Z,11.1
2022-10-21T06:58:50.235Z,12.0
2022-10-21T07:00:49.672Z,12.0
2022-10-21T07:02:50.210Z,14.3
2022-10-21T07:04:50.130Z,14.9
2022-10-21T07:06:49.959Z,11.2
2022-10-21T07:08:57.744Z,9.9
2022-10-21T07:10:50.302Z,9.9
2022-10-21T07:12:49.865Z,10.6
2022-10-21T07:14:50.205Z,10.6
2022-10-21T07:16:49.924Z,10.4
2022-10-21T07:18:50.376Z,10.7
2022-10-21T07:20:49.932Z,11.7
2022-10-21T07:22:50.243Z,11.7
2022-10-21T07:24:49.783Z,11.6
2022-10-21T07:26:49.711Z,12.0
2022-10-21T07:28:50.160Z,26.0
2022-10-21T07:30:50.539Z,26.0
2022-10-21T07:32:50.022Z,12.6
2022-10-21T07:34:49.941Z,14.3
2022-10-21T07:36:49.602Z,13.1
2022-10-21T07:38:49.895Z,17.2
2022-10-21T07:40:50.297Z,17.2
2022-10-21T07:42:49.607Z,19.3
2022-10-21T07:44:50.012Z,15.5
2022-10-21T07:46:49.716Z,11.3
2022-10-21T07:48:50.135Z,30.4
2022-10-21T07:50:50.536Z,30.4
2022-10-21T07:52:54.708Z,13.6
2022-10-21T07:54:49.898Z,12.4
2022-10-21T07:56:49.813Z,13.7
2022-10-21T07:58:50.216Z,13.0
2022-10-21T08:00:49.681Z,13.0
2022-10-21T08:02:50.259Z,15.1
2022-10-21T08:04:50.367Z,13.2
2022-10-21T08:06:50.162Z,16.3
2022-10-21T08:08:49.711Z,13.8
2022-10-21T08:12:50.279Z,14.5
2022-10-21T08:14:49.691Z,17.1
2022-10-21T08:16:50.397Z,11.5
2022-10-21T08:18:49.835Z,12.9
2022-10-21T08:20:50.350Z,12.9
2022-10-21T08:22:49.847Z,32.7
2022-10-21T08:24:50.336Z,22.3
2022-10-21T08:26:50.155Z,20.8
2022-10-21T08:28:49.680Z,20.8
2022-10-21T08:30:50.382Z,12.5
2022-10-21T08:32:49.949Z,16.8
2022-10-21T08:34:49.923Z,17.9
2022-10-21T08:36:49.719Z,12.3
2022-10-21T08:38:50.145Z,11.7
2022-10-21T08:40:50.093Z,11.7
2022-10-21T08:42:50.038Z,12.7
2022-10-21T08:44:49.550Z,11.5
2022-10-21T08:46:50.321Z,11.5
2022-10-21T08:48:49.839Z,16.5
2022-10-21T08:50:50.266Z,16.5
2022-10-21T08:52:49.757Z,15.8
2022-10-21T08:54:50.223Z,17.3
2022-10-21T08:56:50.105Z,14.1
2022-10-21T08:58:49.573Z,14.1
2022-10-21T09:00:50.116Z,13.0
2022-10-21T09:02:50.544Z,14.5
2022-10-21T09:04:49.836Z,12.5
2022-10-21T09:06:50.442Z,12.5
2022-10-21T09:08:51.468Z,13.2
2022-10-21T09:10:49.955Z,15.5
2022-10-21T09:12:50.533Z,17.5
2022-10-21T09:14:49.933Z,14.9
2022-10-21T09:16:49.806Z,14.9
2022-10-21T09:18:50.235Z,14.1
2022-10-21T09:20:53.381Z,13.9
2022-10-21T09:22:49.924Z,12.5
2022-10-21T09:24:49.551Z,53.0
2022-10-21T09:26:50.447Z,20.5
2022-10-21T09:28:49.957Z,20.5
2022-10-21T09:30:50.353Z,16.2
2022-10-21T09:32:49.900Z,14.1
2022-10-21T09:34:50.054Z,14.2
2022-10-21T09:36:49.896Z,17.8
2022-10-21T09:38:50.495Z,17.8
2022-10-21T09:40:49.897Z,16.7
2022-10-21T09:42:50.588Z,15.1
2022-10-21T09:44:50.004Z,13.4
2022-10-21T09:46:49.874Z,13.4
2022-10-21T09:50:50.170Z,14.1
2022-10-21T09:52:50.524Z,12.9
2022-10-21T09:54:49.934Z,16.1
2022-10-21T09:56:49.644Z,16.1
2022-10-21T09:58:50.139Z,29.2
2022-10-21T10:00:49.650Z,16.3
2022-10-21T10:02:50.407Z,25.1
2022-10-21T10:04:50.277Z,17.0
2022-10-21T10:06:50.301Z,17.0
2022-10-21T10:08:49.893Z,12.2
2022-10-21T10:10:50.166Z,14.5
2022-10-21T10:12:49.656Z,14.5
2022-10-21T10:14:50.077Z,13.8
2022-10-21T10:16:49.669Z,13.8
2022-10-21T10:18:50.063Z,17.4
2022-10-21T10:20:50.437Z,22.2
2022-10-21T10:22:49.815Z,21.1
2022-10-21T10:24:50.204Z,21.1
2022-10-21T10:26:49.927Z,16.3
2022-10-21T10:28:50.330Z,13.3
2022-10-21T10:30:49.804Z,17.9
2022-10-21T10:32:50.135Z,17.9
2022-10-21T10:34:50.058Z,14.3
2022-10-21T10:36:49.773Z,18.9
2022-10-21T10:38:50.133Z,16.9
2022-10-21T10:40:50.653Z,16.1
2022-10-21T10:42:49.799Z,17.8
2022-10-21T10:44:50.233Z,17.8
2022-10-21T10:46:50.112Z,14.6
2022-10-21T10:48:49.664Z,15.5
2022-10-21T10:50:49.947Z,16.0
2022-10-21T10:52:50.319Z,16.0
2022-10-21T10:54:49.639Z,14.4
2022-10-21T10:56:50.377Z,16.0
2022-10-21T10:58:50.303Z,15.6
2022-10-21T11:00:49.682Z,14.0
2022-10-21T11:02:50.466Z,14.3
2022-10-21T11:04:49.641Z,14.3
2022-10-21T11:06:49.786Z,17.6
2022-10-21T11:08:50.231Z,15.4
2022-10-21T11:10:50.240Z,18.3
2022-10-21T11:12:49.685Z,18.3
2022-10-21T11:14:50.222Z,18.4
2022-10-21T11:16:59.369Z,27.6
2022-10-21T11:18:50.224Z,27.1
2022-10-21T11:20:49.625Z,23.1
2022-10-21T11:22:50.416Z,23.1
2022-10-21T11:24:49.715Z,21.9
2022-10-21T11:26:50.340Z,18.9
2022-10-21T11:28:49.711Z,18.3
2022-10-21T11:30:50.138Z,20.8
2022-10-21T11:32:49.587Z,20.8
2022-10-21T11:34:49.725Z,20.4
2022-10-21T11:36:50.495Z,20.8
2022-10-21T11:38:49.840Z,20.2
2022-10-21T11:40:50.406Z,20.2
2022-10-21T11:42:49.762Z,24.4
2022-10-21T11:44:50.240Z,29.9
2022-10-21T11:46:49.975Z,20.2
2022-10-21T11:48:50.446Z,22.2
2022-10-21T11:50:49.913Z,19.2
2022-10-21T11:52:50.469Z,19.2
2022-10-21T11:55:05.934Z,18.7
2022-10-21T11:56:49.880Z,20.1
2022-10-21T11:58:50.427Z,19.6
2022-10-21T12:00:49.946Z,19.6
2022-10-21T12:02:50.458Z,19.9
2022-10-21T12:04:49.829Z,18.5
2022-10-21T12:06:49.654Z,19.4
2022-10-21T12:08:50.858Z,22.7
2022-10-21T12:10:50.153Z,22.7
2022-10-21T12:12:49.663Z,19.9
2022-10-21T12:14:50.308Z,18.0
2022-10-21T12:16:50.185Z,18.0
2022-10-21T12:18:49.617Z,18.0
2022-10-21T12:20:50.226Z,18.0
2022-10-21T12:22:49.681Z,18.0
2022-10-21T12:24:50.307Z,17.6
2022-10-21T12:26:50.188Z,17.6
2022-10-21T12:28:49.850Z,17.6
2022-10-21T12:30:50.294Z,17.8
2022-10-21T12:32:49.929Z,21.9
2022-10-21T12:34:49.750Z,17.3
2022-10-21T12:36:50.488Z,17.8
2022-10-21T12:38:49.999Z,17.0
2022-10-21T12:40:50.511Z,17.0
2022-10-21T12:42:50.066Z,18.6
2022-10-21T12:44:50.531Z,18.4
2022-10-21T12:46:50.391Z,18.3
2022-10-21T12:48:49.908Z,18.6
2022-10-21T12:50:50.411Z,18.6
2022-10-21T12:52:49.929Z,17.7
2022-10-21T12:54:50.313Z,15.4
2022-10-21T12:56:50.128Z,14.0
2022-10-21T12:58:50.484Z,14.0
2022-10-21T13:00:49.942Z,13.9
2022-10-21T13:02:51.625Z,13.9
2022-10-21T13:04:49.587Z,14.7
2022-10-21T13:06:50.051Z,14.4
2022-10-21T13:08:50.484Z,14.4
2022-10-21T13:10:50.406Z,12.4
2022-10-21T13:12:49.880Z,13.2
2022-10-21T13:14:50.422Z,11.6
2022-10-21T13:16:50.141Z,13.0
2022-10-21T13:18:49.582Z,13.0
2022-10-21T13:20:50.080Z,12.8
2022-10-21T13:22:50.454Z,13.6
2022-10-21T13:24:49.941Z,11.9
2022-10-21T13:26:49.669Z,13.0
2022-10-21T13:28:50.042Z,13.0
2022-10-21T13:30:49.642Z,11.4
2022-10-21T13:32:49.999Z,12.8
2022-10-21T13:34:50.483Z,10.7
2022-10-21T13:36:50.097Z,10.7
2022-10-21T13:38:49.547Z,14.1
2022-10-21T13:40:49.935Z,11.3
2022-10-21T13:42:50.481Z,11.3
2022-10-21T13:44:50.002Z,11.0
2022-10-21T13:46:49.716Z,14.3
2022-10-21T13:48:50.020Z,11.3
2022-10-21T13:50:49.582Z,10.0
2022-10-21T13:52:50.046Z,9.8
2022-10-21T13:54:49.563Z,10.8
2022-10-21T13:56:50.419Z,10.8
2022-10-21T13:58:50.016Z,10.5
2022-10-21T14:00:52.877Z,10.0
2022-10-21T14:02:49.598Z,15.0
2022-10-21T14:04:49.760Z,8.6
2022-10-21T14:06:50.535Z,8.6
2022-10-21T14:08:50.024Z,8.4
2022-10-21T14:10:49.875Z,11.0
2022-10-21T14:12:50.401Z,11.0
2022-10-21T14:14:49.643Z,9.3
2022-10-21T14:16:50.394Z,9.3
2022-10-21T14:18:49.718Z,11.0
2022-10-21T14:20:50.144Z,11.8
2022-10-21T14:22:49.597Z,11.1
2022-10-21T14:24:49.555Z,10.5
2022-10-21T14:26:50.355Z,10.5
2022-10-21T14:28:49.876Z,10.1
2022-10-21T14:30:50.326Z,7.8
2022-10-21T14:32:49.784Z,7.8
2022-10-21T14:34:49.829Z,12.3
2022-10-21T14:36:49.639Z,11.0
2022-10-21T14:38:50.095Z,9.1
2022-10-21T14:40:50.519Z,7.5
2022-10-21T14:42:51.014Z,7.5
2022-10-21T14:44:50.123Z,9.8
2022-10-21T14:46:50.061Z,11.4
2022-10-21T14:48:50.467Z,7.2
2022-10-21T14:50:50.461Z,10.3
2022-10-21T14:52:49.863Z,10.3
2022-10-21T14:54:50.282Z,8.4
2022-10-21T14:56:50.047Z,9.0
2022-10-21T14:58:49.557Z,10.1
2022-10-21T15:00:49.998Z,14.4
2022-10-21T15:02:49.697Z,14.4
2022-10-21T15:04:50.196Z,9.9
2022-10-21T15:06:49.976Z,9.6
2022-10-21T15:08:50.562Z,9.1
2022-10-21T15:10:50.291Z,11.9
2022-10-21T15:12:49.679Z,11.9
2022-10-21T15:14:50.229Z,13.6
2022-10-21T15:16:50.075Z,17.7
2022-10-21T15:18:49.652Z,33.3
2022-10-21T15:20:50.266Z,21.0
2022-10-21T15:22:49.706Z,21.0
2022-10-21T15:24:50.151Z,22.2
2022-10-21T15:26:50.010Z,33.8
2022-10-21T15:28:50.401Z,13.5
2022-10-21T15:30:49.834Z,20.2
2022-10-21T15:32:50.332Z,20.2
2022-10-21T15:34:50.350Z,28.3
2022-10-21T15:36:50.238Z,20.9
2022-10-21T15:38:49.596Z,33.8
2022-10-21T15:40:50.169Z,18.8
2022-10-21T15:42:49.646Z,18.8
2022-10-21T15:44:50.229Z,16.2
2022-10-21T15:46:49.888Z,13.6
2022-10-21T15:48:50.325Z,13.6
2022-10-21T15:50:49.781Z,13.6
2022-10-21T15:52:50.187Z,17.2
2022-10-21T15:54:50.038Z,14.0
2022-10-21T15:56:49.803Z,10.5
2022-10-21T15:58:50.379Z,10.5
2022-10-21T16:00:49.965Z,11.5
2022-10-21T16:02:49.914Z,11.5
2022-10-21T16:04:49.806Z,14.9
2022-10-21T16:06:49.742Z,12.9
2022-10-21T16:08:50.303Z,13.0
2022-10-21T16:10:50.038Z,13.0
2022-10-21T16:12:50.454Z,12.3
2022-10-21T16:14:49.918Z,11.7
2022-10-21T16:16:49.849Z,11.2
2022-10-21T16:18:50.191Z,11.2
2022-10-21T16:20:49.723Z,12.2
2022-10-21T16:22:50.214Z,10.9
2022-10-21T16:24:49.767Z,16.1
2022-10-21T16:26:49.643Z,16.1
2022-10-21T16:28:50.127Z,13.4
2022-10-21T16:30:49.565Z,13.4
2022-10-21T16:32:50.103Z,11.5
2022-10-21T16:34:50.149Z,17.7
2022-10-21T16:36:49.938Z,15.6
2022-10-21T16:38:50.375Z,17.0
2022-10-21T16:40:49.918Z,17.0
2022-10-21T16:42:50.440Z,12.6
2022-10-21T16:44:49.932Z,14.1
2022-10-21T16:46:49.807Z,15.0
2022-10-21T16:48:50.363Z,15.0
2022-10-21T16:50:49.773Z,13.7
2022-10-21T16:52:50.187Z,15.8
2022-10-21T16:54:50.548Z,15.1
2022-10-21T16:56:51.994Z,15.7
2022-10-21T16:58:50.103Z,15.7
2022-10-21T17:00:50.523Z,13.3
2022-10-21T17:02:50.458Z,13.3
2022-10-21T17:04:50.403Z,16.4
2022-10-21T17:06:50.109Z,15.6
2022-10-21T17:08:49.579Z,15.4
2022-10-21T17:10:50.392Z,15.4
2022-10-21T17:12:49.738Z,19.9
2022-10-21T17:14:50.264Z,17.8
2022-10-21T17:16:49.932Z,16.5
2022-10-21T17:18:50.343Z,16.5
2022-10-21T17:20:49.784Z,20.6
2022-10-21T17:22:50.149Z,16.8
2022-10-21T17:24:49.637Z,18.0
2022-10-21T17:26:50.507Z,16.3
2022-10-21T17:28:49.931Z,16.3
2022-10-21T17:30:50.436Z,18.9
2022-10-21T17:32:49.955Z,14.9
2022-10-21T17:34:49.954Z,14.9
2022-10-21T17:36:49.843Z,16.5
2022-10-21T17:38:50.330Z,16.5
2022-10-21T17:40:49.966Z,18.8
2022-10-21T17:42:50.364Z,18.0
2022-10-21T17:44:49.868Z,16.8
2022-10-21T17:46:49.625Z,18.5
2022-10-21T17:48:50.015Z,18.5
2022-10-21T17:52:49.957Z,22.9
2022-10-21T17:54:50.403Z,20.0
2022-10-21T17:56:50.110Z,17.4
2022-10-21T17:58:49.603Z,17.4
2022-10-21T18:00:49.964Z,17.5
2022-10-21T18:02:49.618Z,18.5
2022-10-21T18:04:49.974Z,15.8
2022-10-21T18:06:49.896Z,15.8
2022-10-21T18:08:50.292Z,17.8
2022-10-21T18:10:50.156Z,17.1
2022-10-21T18:12:50.502Z,17.0
2022-10-21T18:14:49.875Z,17.1
2022-10-21T18:16:49.631Z,17.1
2022-10-21T18:18:50.241Z,19.0
2022-10-21T18:20:49.662Z,17.1
2022-10-21T18:22:50.132Z,16.8
2022-10-21T18:24:49.567Z,16.8
2022-10-21T18:26:50.439Z,15.4
2022-10-21T18:28:49.886Z,17.1
2022-10-21T18:30:50.340Z,17.6
2022-10-21T18:32:49.666Z,16.9
2022-10-21T18:34:49.553Z,16.9
2022-10-21T18:38:49.716Z,17.4
2022-10-21T18:40:56.236Z,18.3
2022-10-21T18:42:50.206Z,15.7
2022-10-21T18:44:49.660Z,15.7
2022-10-21T18:46:51.290Z,17.0
2022-10-21T18:48:49.620Z,16.7
2022-10-21T18:50:50.122Z,20.4
2022-10-21T18:52:49.587Z,17.3
2022-10-21T18:54:49.972Z,17.3
2022-10-21T18:56:49.684Z,20.3
2022-10-21T18:58:50.173Z,15.9
2022-10-21T19:00:49.660Z,15.9
2022-10-21T19:02:50.222Z,13.3
2022-10-21T19:04:50.159Z,13.3
2022-10-21T19:06:49.986Z,13.7
2022-10-21T19:08:50.517Z,13.8
2022-10-21T19:10:50.302Z,14.8
2022-10-21T19:12:49.700Z,13.3
2022-10-21T19:14:50.209Z,13.3
2022-10-21T19:16:50.148Z,13.0
2022-10-21T19:18:49.609Z,15.9
2022-10-21T19:20:49.890Z,16.4
2022-10-21T19:22:50.248Z,16.4
2022-10-21T19:24:49.731Z,15.0
2022-10-21T19:26:49.551Z,15.9
2022-10-21T19:28:50.107Z,13.9
2022-10-21T19:30:50.496Z,17.3
2022-10-21T19:32:49.932Z,17.3
2022-10-21T19:34:49.729Z,14.9
2022-10-21T19:36:50.415Z,14.3
2022-10-21T19:38:49.793Z,17.8
2022-10-21T19:40:50.323Z,17.2
2022-10-21T19:42:49.832Z,17.2
2022-10-21T19:44:50.163Z,17.2
2022-10-21T19:46:49.894Z,17.2
2022-10-21T19:48:50.306Z,17.6
2022-10-21T19:50:49.788Z,17.6
2022-10-21T19:52:50.114Z,13.6
2022-10-21T19:54:50.516Z,16.0
2022-10-21T19:56:50.370Z,18.3
2022-10-21T19:58:49.823Z,20.4
2022-10-21T20:00:50.282Z,20.4
2022-10-21T20:02:50.033Z,21.1
2022-10-21T20:04:49.937Z,20.9
2022-10-21T20:06:49.773Z,24.4
2022-10-21T20:08:50.258Z,20.6
2022-10-21T20:10:50.031Z,22.0
2022-10-21T20:12:50.407Z,22.0
2022-10-21T20:14:49.777Z,25.5
2022-10-21T20:16:50.511Z,22.8
2022-10-21T20:18:49.977Z,22.9
2022-10-21T20:20:50.320Z,22.9
2022-10-21T20:22:49.746Z,21.2
2022-10-21T20:24:50.170Z,18.3
2022-10-21T20:26:49.897Z,21.2
2022-10-21T20:28:50.323Z,21.1
2022-10-21T20:30:49.764Z,21.1
2022-10-21T20:32:50.152Z,21.9
2022-10-21T20:34:50.046Z,19.5
2022-10-21T20:36:49.813Z,19.2
2022-10-21T20:38:50.075Z,23.8
2022-10-21T20:40:49.617Z,23.8
2022-10-21T20:42:50.006Z,20.7
2022-10-21T20:44:49.629Z,23.0
2022-10-21T20:46:50.328Z,21.4
2022-10-21T20:48:49.663Z,21.4
2022-10-21T20:50:49.997Z,21.0
2022-10-21T20:52:50.256Z,16.6
2022-10-21T20:54:49.580Z,21.5
2022-10-21T20:56:50.276Z,22.4
2022-10-21T20:58:49.656Z,22.4
2022-10-21T21:00:50.101Z,23.7
2022-10-21T21:02:50.543Z,20.3
2022-10-21T21:04:49.804Z,20.0
2022-10-21T21:06:50.514Z,20.6
2022-10-21T21:09:08.468Z,20.6
2022-10-21T21:10:49.943Z,19.9
2022-10-21T21:12:50.381Z,20.8
2022-10-21T21:14:49.807Z,19.3
2022-10-21T21:16:49.673Z,17.5
2022-10-21T21:18:50.049Z,17.5
2022-10-21T21:20:50.481Z,16.0
2022-10-21T21:22:50.071Z,17.1
2022-10-21T21:24:50.501Z,15.2
2022-10-21T21:26:50.163Z,17.9
2022-10-21T21:28:49.572Z,17.9
2022-10-21T21:30:50.046Z,18.6
2022-10-21T21:32:50.379Z,15.4
2022-10-21T21:34:50.352Z,22.2
2022-10-21T21:36:50.206Z,31.1
2022-10-21T21:38:49.681Z,31.1
2022-10-21T21:40:50.144Z,25.1
2022-10-21T21:42:49.715Z,21.1
2022-10-21T21:44:50.106Z,17.6
2022-10-21T21:46:50.059Z,16.0
2022-10-21T21:48:51.123Z,16.0
2022-10-21T21:50:50.141Z,16.0
2022-10-21T21:52:50.542Z,17.6
2022-10-21T21:54:50.139Z,17.7
2022-10-21T21:56:51.998Z,17.0
2022-10-21T21:58:50.262Z,17.0
2022-10-21T22:00:49.712Z,19.0
2022-10-21T22:02:50.221Z,15.4
2022-10-21T22:04:50.232Z,20.7
2022-10-21T22:06:50.014Z,20.7
2022-10-21T22:08:50.484Z,20.3
2022-10-21T22:10:49.629Z,20.3
2022-10-21T22:12:50.027Z,19.3
2022-10-21T22:14:50.415Z,20.8
2022-10-21T22:16:50.256Z,20.8
2022-10-21T22:18:49.685Z,17.1
2022-10-21T22:20:50.088Z,17.8
2022-10-21T22:22:50.402Z,17.8
2022-10-21T22:24:49.892Z,17.1
2022-10-21T22:26:49.707Z,17.1
2022-10-21T22:28:50.143Z,17.7
2022-10-21T22:30:50.479Z,14.1
2022-10-21T22:32:49.879Z,14.1
2022-10-21T22:34:49.702Z,18.6
2022-10-21T22:36:50.511Z,18.6
2022-10-21T22:38:49.799Z,21.4
2022-10-21T22:40:50.206Z,29.8
2022-10-21T22:42:49.650Z,22.9
2022-10-21T22:44:50.035Z,22.7
2022-10-21T22:46:49.825Z,22.7
2022-10-21T22:48:50.390Z,20.1
2022-10-21T22:50:49.905Z,28.6
2022-10-21T22:52:50.420Z,28.6
2022-10-21T22:54:50.162Z,22.9
2022-10-21T22:56:50.044Z,19.7
2022-10-21T22:58:50.432Z,19.7
2022-10-21T23:00:49.945Z,21.9
2022-10-21T23:02:49.642Z,21.9
2022-10-21T23:04:50.394Z,15.8
2022-10-21T23:06:50.143Z,25.6
2022-10-21T23:08:49.580Z,21.3
2022-10-21T23:10:50.236Z,25.2
2022-10-21T23:12:49.699Z,21.8
2022-10-21T23:14:50.103Z,21.8
2022-10-21T23:16:49.824Z,16.4
2022-10-21T23:18:50.262Z,17.4
2022-10-21T23:20:49.693Z,20.6
2022-10-21T23:22:50.057Z,21.6
2022-10-21T23:24:50.372Z,21.6
2022-10-21T23:26:50.267Z,19.9
2022-10-21T23:28:49.724Z,22.1
2022-10-21T23:30:50.258Z,19.2
2022-10-21T23:32:49.625Z,21.1
2022-10-21T23:34:49.570Z,21.1
2022-10-21T23:36:50.214Z,18.7
2022-10-21T23:38:49.678Z,20.4
2022-10-21T23:40:50.081Z,22.5
2022-10-21T23:42:50.521Z,21.3
2022-10-21T23:44:49.844Z,21.3
2022-10-21T23:46:49.582Z,18.3
2022-10-21T23:48:50.085Z,23.0
2022-10-21T23:50:49.595Z,18.8
2022-10-21T23:52:50.102Z,18.8
2022-10-21T23:54:49.559Z,19.3
2022-10-21T23:56:50.424Z,21.4
2022-10-21T23:58:49.754Z,21.5
